createdAt,value
2018-11-27T00:03:02.043Z,101945.37
2018-11-27T00:06:06.667Z,101946.98
2018-11-27T00:09:11.020Z,101954.66
2018-11-27T00:12:15.368Z,101955.14
2018-11-27T00:15:20.033Z,101957.55
2018-11-27T00:18:24.940Z,101956.39
2018-11-27T00:21:29.698Z,101964.56
2018-11-27T00:24:34.193Z,101969.43
2018-11-27T00:27:40.896Z,101975.85
2018-11-27T00:30:45.486Z,101971.86
2018-11-27T00:33:50.063Z,101972.37
2018-11-27T00:36:54.609Z,101981.36
2018-11-27T00:39:59.742Z,101984.77
2018-11-27T00:43:04.615Z,101992.52
2018-11-27T00:46:09.980Z,101984.09
2018-11-27T00:49:15.053Z,101987.02
2018-11-27T00:52:19.869Z,101981.55
2018-11-27T00:55:24.878Z,101985.80
2018-11-27T00:58:29.644Z,101980.94
2018-11-27T01:01:34.536Z,101988.38
2018-11-27T01:04:39.307Z,101985.35
2018-11-27T01:07:43.752Z,101986.69
2018-11-27T01:10:48.277Z,101983.16
2018-11-27T01:13:52.865Z,101987.17
2018-11-27T01:16:57.385Z,101991.70
2018-11-27T01:20:02.036Z,101989.69
2018-11-27T01:23:07.585Z,101992.36
2018-11-27T01:26:11.968Z,101993.70
2018-11-27T01:29:16.480Z,101995.52
2018-11-27T01:32:20.822Z,101998.59
2018-11-27T01:35:25.226Z,101999.59
2018-11-27T01:38:29.575Z,102003.61
2018-11-27T01:41:33.871Z,102002.27
2018-11-27T01:44:38.201Z,102007.62
2018-11-27T01:47:42.500Z,102000.07
2018-11-27T01:50:46.790Z,102000.93
2018-11-27T01:53:51.163Z,101991.19
2018-11-27T01:56:55.511Z,101993.03
2018-11-27T01:59:59.845Z,101996.80
2018-11-27T02:03:04.199Z,101995.95
2018-11-27T02:06:08.503Z,101994.85
2018-11-27T02:09:13.879Z,101995.33
2018-11-27T02:12:18.185Z,101990.97
2018-11-27T02:15:24.809Z,101994.88
2018-11-27T02:18:29.117Z,101994.08
2018-11-27T02:21:33.736Z,102003.70
2018-11-27T02:24:38.104Z,102002.77
2018-11-27T02:27:42.472Z,102000.70
2018-11-27T02:30:46.922Z,102010.91
2018-11-27T02:33:51.363Z,102008.58
2018-11-27T02:36:56.812Z,102014.66
2018-11-27T02:40:01.525Z,102010.77
2018-11-27T02:43:06.258Z,102003.70
2018-11-27T02:46:11.725Z,102002.16
2018-11-27T02:49:16.067Z,102003.76
2018-11-27T02:52:20.494Z,101996.00
2018-11-27T02:55:26.325Z,101997.95
2018-11-27T02:58:30.742Z,101998.94
2018-11-27T03:01:35.489Z,101999.89
2018-11-27T03:04:40.476Z,101998.21
2018-11-27T03:07:44.959Z,101997.14
2018-11-27T03:10:49.876Z,102001.50
2018-11-27T03:13:54.669Z,101999.44
2018-11-27T03:16:59.311Z,102011.39
2018-11-27T03:20:03.876Z,102008.63
2018-11-27T03:23:08.607Z,102004.23
2018-11-27T03:26:13.131Z,102004.23
2018-11-27T03:29:17.637Z,102009.11
2018-11-27T03:32:22.166Z,102015.31
2018-11-27T03:35:26.870Z,102014.94
2018-11-27T03:38:32.190Z,102018.12
2018-11-27T03:41:36.811Z,102024.08
2018-11-27T03:44:41.319Z,102019.84
2018-11-27T03:47:45.902Z,102020.59
2018-11-27T03:50:50.513Z,102022.87
2018-11-27T03:53:55.147Z,102031.63
2018-11-27T03:56:59.890Z,102022.14
2018-11-27T04:54:49.151Z,102037.14
2018-11-27T04:57:54.285Z,102039.34
2018-11-27T05:00:59.205Z,102041.16
2018-11-27T05:04:03.749Z,102048.22
2018-11-27T05:07:08.422Z,102049.64
2018-11-27T05:10:17.802Z,102048.77
2018-11-27T05:13:22.388Z,102050.11
2018-11-27T05:16:26.873Z,102054.84
2018-11-27T05:19:31.436Z,102061.16
2018-11-27T05:22:36.105Z,102061.53
2018-11-27T05:25:40.579Z,102063.22
2018-11-27T05:28:45.096Z,102058.59
2018-11-27T05:31:49.685Z,102053.12
2018-11-27T05:34:54.737Z,102051.65
2018-11-27T05:38:01.556Z,102054.41
2018-11-27T05:41:06.068Z,102052.94
2018-11-27T05:44:10.529Z,102054.66
2018-11-27T05:47:14.913Z,102054.87
2018-11-27T05:50:19.812Z,102060.09
2018-11-27T05:53:24.177Z,102063.11
2018-11-27T05:56:28.755Z,102067.23
2018-11-27T05:59:33.195Z,102068.18
2018-11-27T06:02:38.472Z,102068.53
2018-11-27T06:05:42.996Z,102068.58
2018-11-27T06:08:47.519Z,102070.27
2018-11-27T06:11:51.987Z,102073.55
2018-11-27T06:14:56.731Z,102076.36
2018-11-27T06:18:03.098Z,102076.36
2018-11-27T06:21:07.745Z,102075.80
2018-11-27T06:24:13.039Z,102081.97
2018-11-27T06:27:17.864Z,102081.49
2018-11-27T06:30:23.912Z,102083.31
2018-11-27T06:33:28.827Z,102094.87
2018-11-27T06:36:33.489Z,102098.75
2018-11-27T06:39:38.047Z,102107.27
2018-11-27T06:42:42.473Z,102102.77
2018-11-27T06:45:47.353Z,102106.78
2018-11-27T06:48:51.881Z,102112.00
2018-11-27T06:51:56.351Z,102117.83
2018-11-27T06:55:01.126Z,102110.53
2018-11-27T06:58:07.091Z,102112.86
2018-11-27T07:01:11.760Z,102118.56
2018-11-27T07:04:16.415Z,102120.63
2018-11-27T07:07:21.977Z,102123.66
2018-11-27T07:10:31.872Z,102125.72
2018-11-27T07:13:36.356Z,102135.69
2018-11-27T07:16:40.780Z,102132.88
2018-11-27T07:19:45.115Z,102129.69
2018-11-27T07:22:49.512Z,102133.57
2018-11-27T07:25:53.940Z,102133.82
2018-11-27T07:28:59.346Z,102139.52
2018-11-27T07:32:03.667Z,102146.21
2018-11-27T07:35:10.690Z,102154.24
2018-11-27T07:38:15.002Z,102160.80
2018-11-27T07:41:19.363Z,102160.67
2018-11-27T07:44:23.739Z,102166.75
2018-11-27T07:47:28.048Z,102174.30
2018-11-27T07:50:32.348Z,102168.82
2018-11-27T07:53:36.629Z,102181.22
2018-11-27T07:56:41.210Z,102178.41
2018-11-27T07:59:54.549Z,102182.64
2018-11-27T08:02:59.944Z,102188.11
2018-11-27T08:06:04.529Z,102183.83
2018-11-27T08:09:10.556Z,102180.89
2018-11-27T08:12:14.982Z,102187.19
2018-11-27T08:15:21.677Z,102193.88
2018-11-27T08:18:26.211Z,102201.00
2018-11-27T08:21:31.244Z,102203.14
2018-11-27T08:24:35.687Z,102204.62
2018-11-27T08:27:40.006Z,102214.85
2018-11-27T08:30:44.408Z,102217.75
2018-11-27T08:33:48.739Z,102218.47
2018-11-27T08:36:53.031Z,102223.95
2018-11-27T08:39:57.344Z,102221.61
2018-11-27T08:43:02.422Z,102220.73
2018-11-27T08:46:07.070Z,102230.92
2018-11-27T08:49:11.366Z,102231.13
2018-11-27T08:52:15.669Z,102232.59
2018-11-27T08:55:36.917Z,102234.48
2018-11-27T08:58:41.253Z,102241.30
2018-11-27T09:01:45.565Z,102245.91
2018-11-27T09:04:49.862Z,102245.12
2018-11-27T09:07:54.205Z,102262.28
2018-11-27T09:10:58.515Z,102258.51
2018-11-27T09:14:02.861Z,102259.44
2018-11-27T09:17:08.345Z,102260.30
2018-11-27T09:20:13.428Z,102266.22
2018-11-27T09:23:17.735Z,102271.77
2018-11-27T09:26:22.101Z,102265.97
2018-11-27T09:29:26.410Z,102269.80
2018-11-27T09:32:31.451Z,102266.44
2018-11-27T09:35:36.065Z,102267.87
2018-11-27T09:38:40.317Z,102270.70
2018-11-27T09:41:44.644Z,102276.76
2018-11-27T09:44:48.956Z,102275.31
2018-11-27T09:47:57.298Z,102270.77
2018-11-27T09:51:01.604Z,102264.92
2018-11-27T09:54:06.468Z,102273.28
2018-11-27T09:57:10.762Z,102277.52
2018-11-27T10:00:18.836Z,102276.38
2018-11-27T10:03:23.120Z,102272.45
2018-11-27T10:06:27.470Z,102273.87
2018-11-27T10:09:31.780Z,102265.06
2018-11-27T10:12:36.012Z,102264.72
2018-11-27T10:15:40.257Z,102268.60
2018-11-27T10:18:44.519Z,102272.55
2018-11-27T10:21:48.768Z,102271.17
2018-11-27T10:24:53.179Z,102259.50
2018-11-27T10:27:57.354Z,102263.97
2018-11-27T10:31:01.583Z,102268.58
2018-11-27T10:34:06.423Z,102267.58
2018-11-27T10:37:10.724Z,102263.27
2018-11-27T10:40:14.979Z,102262.16
2018-11-27T10:43:19.974Z,102265.39
2018-11-27T10:46:23.527Z,102253.39
2018-11-27T10:49:27.752Z,102259.97
2018-11-27T10:52:32.007Z,102262.08
2018-11-27T10:55:36.240Z,102260.87
2018-11-27T10:58:40.497Z,102262.59
2018-11-27T11:01:50.029Z,102263.28
2018-11-27T11:04:54.310Z,102269.37
2018-11-27T11:07:58.595Z,102270.23
2018-11-27T11:11:02.853Z,102271.34
2018-11-27T11:14:07.609Z,102276.23
2018-11-27T11:17:11.848Z,102269.37
2018-11-27T11:20:16.144Z,102257.42
2018-11-27T11:23:20.429Z,102254.94
2018-11-27T11:26:24.735Z,102267.26
2018-11-27T11:29:29.019Z,102271.34
2018-11-27T11:32:34.946Z,102266.27
2018-11-27T11:35:39.259Z,102269.44
2018-11-27T11:38:43.524Z,102269.72
2018-11-27T11:41:47.817Z,102278.06
2018-11-27T11:44:52.174Z,102271.00
2018-11-27T11:47:56.482Z,102264.83
2018-11-27T11:51:00.804Z,102265.20
2018-11-27T11:54:05.462Z,102267.52
2018-11-27T11:57:09.791Z,102266.70
2018-11-27T12:00:26.288Z,102268.61
2018-11-27T12:03:30.608Z,102271.36
2018-11-27T12:06:34.937Z,102264.84
2018-11-27T12:09:39.236Z,102267.76
2018-11-27T12:12:45.942Z,102270.50
2018-11-27T12:15:50.236Z,102270.87
2018-11-27T12:18:54.555Z,102277.36
2018-11-27T12:21:58.839Z,102273.76
2018-11-27T12:25:03.138Z,102271.56
2018-11-27T12:28:14.730Z,102266.70
2018-11-27T12:31:14.213Z,102265.36
2018-11-27T12:34:18.486Z,102265.90
2018-11-27T12:37:22.780Z,102268.81
2018-11-27T12:40:29.496Z,102265.13
2018-11-27T12:43:33.768Z,102275.02
2018-11-27T12:46:38.109Z,102268.96
2018-11-27T12:49:42.360Z,102268.59
2018-11-27T12:52:46.727Z,102269.10
2018-11-27T12:55:51.845Z,102271.64
2018-11-27T12:58:56.137Z,102273.47
2018-11-27T13:02:00.416Z,102279.62
2018-11-27T13:05:04.796Z,102279.99
2018-11-27T13:08:18.211Z,102280.91
2018-11-27T13:11:22.510Z,102282.16
2018-11-27T13:14:26.889Z,102278.79
2018-11-27T13:17:31.176Z,102281.48
2018-11-27T13:20:35.479Z,102276.11
2018-11-27T13:23:39.787Z,102275.10
2018-11-27T13:26:44.055Z,102270.73
2018-11-27T13:29:48.318Z,102271.36
2018-11-27T13:32:57.685Z,102275.05
2018-11-27T13:36:02.088Z,102277.87
2018-11-27T13:39:23.241Z,102287.76
2018-11-27T13:42:27.697Z,102279.36
2018-11-27T13:45:32.100Z,102276.73
2018-11-27T13:48:36.404Z,102281.77
2018-11-27T13:51:40.728Z,102281.62
2018-11-27T13:54:45.011Z,102282.39
2018-11-27T13:57:49.335Z,102291.98
2018-11-27T14:00:53.650Z,102290.92
2018-11-27T14:03:57.936Z,102281.75
2018-11-27T14:07:02.240Z,102288.89
2018-11-27T14:10:10.471Z,102282.08
2018-11-27T14:13:14.768Z,102275.16
2018-11-27T14:16:19.073Z,102284.19
2018-11-27T14:19:23.368Z,102276.92
2018-11-27T14:22:27.629Z,102280.58
2018-11-27T14:25:31.935Z,102284.89
2018-11-27T14:28:36.245Z,102284.55
2018-11-27T14:31:40.520Z,102284.55
2018-11-27T14:34:44.829Z,102275.77
2018-11-27T14:37:52.372Z,102275.42
2018-11-27T14:40:56.703Z,102276.42
2018-11-27T14:44:01.061Z,102279.59
2018-11-27T14:47:05.700Z,102291.19
2018-11-27T14:50:12.043Z,102287.16
2018-11-27T14:53:16.361Z,102290.61
2018-11-27T14:56:20.639Z,102293.30
2018-11-27T14:59:24.948Z,102295.26
2018-11-27T15:02:29.244Z,102298.29
2018-11-27T15:05:35.643Z,102296.74
2018-11-27T15:08:39.932Z,102308.23
2018-11-27T15:11:44.248Z,102304.34
2018-11-27T15:14:48.584Z,102307.93
2018-11-27T15:17:52.906Z,102306.17
2018-11-27T15:20:57.200Z,102318.35
2018-11-27T15:24:01.490Z,102323.89
2018-11-27T15:27:07.374Z,102321.88
2018-11-27T15:30:28.940Z,102329.53
2018-11-27T15:33:33.224Z,102331.41
2018-11-27T15:36:37.542Z,102337.88
2018-11-27T15:39:41.816Z,102334.39
2018-11-27T15:42:46.126Z,102334.52
2018-11-27T15:45:50.442Z,102330.42
2018-11-27T15:48:54.768Z,102332.38
2018-11-27T15:51:59.008Z,102332.85
2018-11-27T15:55:03.390Z,102329.56
2018-11-27T15:58:12.452Z,102337.12
2018-11-27T16:01:17.046Z,102342.97
2018-11-27T16:04:21.362Z,102338.81
2018-11-27T16:07:25.735Z,102333.45
2018-11-27T16:10:29.994Z,102336.61
2018-11-27T16:13:34.371Z,102336.27
2018-11-27T16:16:38.780Z,102334.20
2018-11-27T16:19:43.023Z,102337.87
2018-11-27T16:22:48.924Z,102327.28
2018-11-27T16:25:53.219Z,102330.57
2018-11-27T16:28:57.560Z,102320.11
2018-11-27T16:32:01.911Z,102336.98
2018-11-27T16:35:07.628Z,102344.77
2018-11-27T16:38:11.947Z,102342.70
2018-11-27T16:41:16.269Z,102342.27
2018-11-27T16:44:20.594Z,102345.91
2018-11-27T16:47:24.837Z,102347.89
2018-11-27T16:50:29.281Z,102345.58
2018-11-27T16:53:33.547Z,102354.01
2018-11-27T16:56:37.949Z,102351.33
2018-11-27T16:59:42.262Z,102364.59
2018-11-27T17:02:47.476Z,102368.14
2018-11-27T17:05:51.715Z,102372.89
2018-11-27T17:08:56.034Z,102378.12
2018-11-27T17:12:00.304Z,102369.47
2018-11-27T17:15:04.645Z,102367.35
2018-11-27T17:18:10.387Z,102367.47
2018-11-27T17:21:14.705Z,102367.81
2018-11-27T17:24:18.988Z,102369.09
2018-11-27T17:27:23.294Z,102380.42
2018-11-27T17:31:07.123Z,102387.82
2018-11-27T17:34:15.631Z,102385.14
2018-11-27T17:37:19.908Z,102385.14
2018-11-27T17:40:24.363Z,102383.23
2018-11-27T17:43:28.660Z,102379.61
2018-11-27T17:46:32.920Z,102384.85
2018-11-27T17:49:37.260Z,102381.69
2018-11-27T17:52:41.570Z,102391.67
2018-11-27T17:55:45.865Z,102379.09
2018-11-27T17:58:50.180Z,102371.30
2018-11-27T18:01:54.496Z,102365.80
2018-11-27T18:04:58.801Z,102377.36
2018-11-27T18:08:03.113Z,102384.58
2018-11-27T18:11:07.628Z,102390.64
2018-11-27T18:14:11.965Z,102397.20
2018-11-27T18:17:16.224Z,102392.09
2018-11-27T18:20:20.501Z,102388.42
2018-11-27T18:23:26.093Z,102389.49
2018-11-27T18:26:30.393Z,102388.67
2018-11-27T18:29:34.693Z,102392.05
2018-11-27T18:32:39.000Z,102403.28
2018-11-27T18:35:43.289Z,102406.58
2018-11-27T18:38:47.588Z,102408.66
2018-11-27T18:41:51.924Z,102411.69
2018-11-27T18:44:56.223Z,102413.55
2018-11-27T18:48:00.579Z,102419.13
2018-11-27T18:51:04.877Z,102423.40
2018-11-27T18:54:09.195Z,102429.70
2018-11-27T18:57:13.442Z,102423.83
2018-11-27T19:00:23.167Z,102425.90
2018-11-27T19:03:27.448Z,102433.81
2018-11-27T19:06:31.758Z,102437.36
2018-11-27T19:09:36.001Z,102440.26
2018-11-27T19:12:40.343Z,102443.07
2018-11-27T19:15:47.503Z,102442.46
2018-11-27T19:18:51.811Z,102439.86
2018-11-27T19:21:56.100Z,102440.45
2018-11-27T19:25:00.438Z,102440.33
2018-11-27T19:28:04.785Z,102436.65
2018-11-27T19:31:09.059Z,102442.02
2018-11-27T19:34:13.327Z,102436.91
2018-11-27T19:37:17.640Z,102437.64
2018-11-27T19:40:22.185Z,102430.59
2018-11-27T19:43:26.509Z,102427.64
2018-11-27T19:46:30.820Z,102426.91
2018-11-27T19:49:35.152Z,102430.20
2018-11-27T19:52:39.464Z,102445.34
2018-11-27T19:55:43.876Z,102453.39
2018-11-27T19:58:48.236Z,102454.73
2018-11-27T20:01:52.519Z,102447.89
2018-11-27T20:04:56.800Z,102444.56
2018-11-27T20:08:01.117Z,102440.67
2018-11-27T20:11:05.829Z,102440.92
2018-11-27T20:14:10.106Z,102434.08
2018-11-27T20:17:14.585Z,102434.56
2018-11-27T20:20:20.600Z,102441.88
2018-11-27T20:23:24.940Z,102439.20
2018-11-27T20:26:29.277Z,102448.59
2018-11-27T20:29:33.644Z,102446.77
2018-11-27T20:32:37.928Z,102455.30
2018-11-27T20:35:42.284Z,102454.09
2018-11-27T20:38:46.592Z,102452.74
2018-11-27T20:41:50.956Z,102447.30
2018-11-27T20:44:55.229Z,102438.77
2018-11-27T20:48:06.466Z,102442.79
2018-11-27T20:51:10.784Z,102444.13
2018-11-27T20:54:15.083Z,102453.52
2018-11-27T20:57:19.419Z,102461.92
2018-11-27T21:00:30.664Z,102466.54
2018-11-27T21:03:34.965Z,102466.28
2018-11-27T21:06:39.319Z,102456.88
2018-11-27T21:09:43.636Z,102459.57
2018-11-27T21:12:48.124Z,102468.23
2018-11-27T21:15:53.391Z,102480.78
2018-11-27T21:18:57.741Z,102467.14
2018-11-27T21:22:02.065Z,102466.28
2018-11-27T21:25:13.582Z,102462.00
2018-11-27T21:28:19.179Z,102471.05
2018-11-27T21:31:24.369Z,102473.86
2018-11-27T21:34:27.862Z,102463.98
2018-11-27T21:37:32.185Z,102460.09
2018-11-27T21:40:38.009Z,102458.50
2018-11-27T21:43:42.296Z,102459.02
2018-11-27T21:46:46.599Z,102459.50
2018-11-27T21:49:50.852Z,102457.68
2018-11-27T21:52:55.148Z,102463.05
2018-11-27T21:55:59.450Z,102466.94
2018-11-27T21:59:03.681Z,102469.62
2018-11-27T22:02:07.972Z,102477.16
2018-11-27T22:05:13.196Z,102474.08
2018-11-27T22:08:17.468Z,102475.07
2018-11-27T22:11:21.714Z,102471.77
2018-11-27T22:14:25.970Z,102474.94
2018-11-27T22:17:30.270Z,102480.09
2018-11-27T22:20:34.528Z,102482.77
2018-11-27T22:23:38.797Z,102487.19
2018-11-27T22:26:43.076Z,102481.31
2018-11-27T22:29:47.352Z,102489.48
2018-11-27T22:32:53.404Z,102486.94
2018-11-27T22:35:57.663Z,102493.89
2018-11-27T22:39:01.920Z,102493.89
2018-11-27T22:42:06.499Z,102486.80
2018-11-27T22:45:14.263Z,102469.02
2018-11-27T22:48:18.556Z,102482.65
2018-11-27T22:51:22.831Z,102486.33
2018-11-27T22:54:27.113Z,102475.73
2018-11-27T22:57:31.381Z,102469.16
2018-11-27T23:00:40.980Z,102465.39
2018-11-27T23:03:45.240Z,102464.31
2018-11-27T23:06:49.551Z,102454.80
2018-11-27T23:09:53.832Z,102455.53
2018-11-27T23:12:58.277Z,102458.95
2018-11-27T23:16:02.532Z,102457.09
2018-11-27T23:19:06.787Z,102459.56
2018-11-27T23:22:11.047Z,102469.30
2018-11-27T23:25:17.266Z,102461.50
2018-11-27T23:28:21.518Z,102457.09
2018-11-27T23:31:25.780Z,102468.20
2018-11-27T23:34:30.093Z,102467.34
2018-11-27T23:37:34.355Z,102458.81
2018-11-27T23:40:38.670Z,102456.27
2018-11-27T23:43:42.940Z,102450.52
2018-11-27T23:46:47.204Z,102451.73
2018-11-27T23:49:51.452Z,102452.59
2018-11-27T23:52:55.741Z,102448.70
2018-11-27T23:56:00.030Z,102444.20
2018-11-27T23:59:04.297Z,102440.17
